5°C Temp
3°C Dewpoint
87% Humidity
Temperature
3 KM/H
2 MPH
2 KTS
100°
Due East

Wind Speed
Clear
Conditions
Pressure 1008.81 (hPa) - 29.79 (in)
Visibility 6.0 (mi) - 9.7 (km)

Current Conditions
LIRQ
Location 35(km)
Metar :LIRQ 252220Z 10002KT CAVOK 05/03 Q1009
Sun 25th February 23:20 pm

Airport
  Metar Aviation API Data Provided by https://www.checkwx.com/ PHP scripts by weather34.com ©2024